Time;durP1;ratioP1;P1;durP2;ratioP2;P2;SDS_P1;SDS_P2;PMS_P1;PMS_P2;Temp;Humidity;BMP_temperature;BMP_pressure;BME280_temperature;BME280_humidity;BME280_pressure;Samples;Min_cycle;Max_cycle;Signal;HPM_P1;HPM_P2
2023/08/07 00:01:10;;;;;;;1.40;0.60;;;;;;;15.85;100.00;99142.32;1474025;88;21346;-80
2023/08/07 00:03:36;;;;;;;4.07;0.40;;;;;;;15.89;100.00;99150.22;1473811;87;21404;-79
2023/08/07 00:06:03;;;;;;;0.97;0.50;;;;;;;15.92;100.00;99152.46;1476065;87;21538;-79
2023/08/07 00:08:31;;;;;;;1.20;0.97;;;;;;;15.97;100.00;99151.31;1474636;87;21515;-79
2023/08/07 00:11:10;;;;;;;17.07;1.60;;;;;;;16.00;100.00;99158.89;1470214;88;21412;-78
2023/08/07 00:13:37;;;;;;;3.30;0.80;;;;;;;16.03;100.00;99161.65;1465902;87;23025;-79
2023/08/07 00:16:04;;;;;;;2.60;0.70;;;;;;;16.05;100.00;99158.23;1488860;88;21360;-80
2023/08/07 00:18:30;;;;;;;1.70;0.57;;;;;;;16.07;100.00;99163.66;1476233;87;21493;-79
2023/08/07 00:20:56;;;;;;;3.83;0.50;;;;;;;16.08;100.00;99167.95;1476507;87;21375;-79
2023/08/07 00:23:23;;;;;;;4.23;0.60;;;;;;;16.13;100.00;99171.33;1472206;87;21508;-79
2023/08/07 00:25:49;;;;;;;0.83;0.80;;;;;;;16.15;100.00;99169.27;1473116;87;21419;-79
2023/08/07 00:28:15;;;;;;;3.57;0.70;;;;;;;16.18;100.00;99174.17;1468725;87;21765;-79
2023/08/07 00:30:41;;;;;;;3.10;0.73;;;;;;;16.23;100.00;99183.18;1472209;88;21486;-79
2023/08/07 00:33:07;;;;;;;3.47;0.60;;;;;;;16.26;100.00;99179.79;1475708;87;21405;-80
2023/08/07 00:35:33;;;;;;;2.87;0.97;;;;;;;16.27;100.00;99180.08;1477165;87;21369;-79
2023/08/07 00:37:59;;;;;;;1.10;0.43;;;;;;;16.27;100.00;99185.42;1462552;88;21556;-79
2023/08/07 00:40:25;;;;;;;1.33;0.60;;;;;;;16.29;100.00;99186.03;1470209;87;22307;-79
2023/08/07 00:42:52;;;;;;;0.97;0.73;;;;;;;16.28;100.00;99195.86;1475620;88;21361;-79
2023/08/07 00:45:18;;;;;;;0.90;0.67;;;;;;;16.29;100.00;99186.03;1474440;87;21397;-79
2023/08/07 00:47:44;;;;;;;3.53;0.60;;;;;;;16.30;100.00;99191.66;1467840;88;22717;-79
2023/08/07 00:50:11;;;;;;;8.67;1.13;;;;;;;16.31;100.00;99195.95;1469812;87;21885;-79
2023/08/07 00:52:38;;;;;;;2.17;0.60;;;;;;;16.31;100.00;99199.96;1474022;87;21546;-78
2023/08/07 00:55:05;;;;;;;2.00;1.33;;;;;;;16.31;100.00;99200.77;1465844;88;21360;-79
2023/08/07 00:57:32;;;;;;;0.77;0.50;;;;;;;16.33;100.00;99196.57;1480370;88;21294;-78
2023/08/07 01:00:00;;;;;;;6.90;1.77;;;;;;;16.34;100.00;99203.05;1468822;87;22255;-78
2023/08/07 01:02:26;;;;;;;1.53;0.70;;;;;;;16.36;100.00;99202.81;1478372;88;21279;-78
2023/08/07 01:04:52;;;;;;;3.37;0.43;;;;;;;16.34;100.00;99203.05;1476953;88;22484;-79
2023/08/07 01:07:18;;;;;;;0.40;0.30;;;;;;;16.33;100.00;99208.06;1478870;87;21976;-79
2023/08/07 01:09:45;;;;;;;1.10;0.60;;;;;;;16.32;100.00;99206.44;1474674;87;21612;-79
2023/08/07 01:12:22;;;;;;;1.23;0.50;;;;;;;16.31;100.00;99206.64;1472944;88;21346;-79
2023/08/07 01:14:57;;;;;;;0.80;0.80;;;;;;;16.26;100.00;99212.63;1465698;87;22309;-78
2023/08/07 01:17:24;;;;;;;3.57;0.80;;;;;;;16.21;100.00;99218.60;1479607;87;22531;-79
2023/08/07 01:19:53;;;;;;;0.80;0.50;;;;;;;16.19;100.00;99221.18;1473644;87;21331;-78
2023/08/07 01:22:21;;;;;;;4.07;0.60;;;;;;;16.19;100.00;99225.19;1465863;87;21463;-80
2023/08/07 01:24:50;;;;;;;0.63;0.60;;;;;;;16.15;100.00;99224.80;1471595;87;21539;-78
2023/08/07 01:27:28;;;;;;;1.47;0.60;;;;;;;16.14;100.00;99236.52;1467256;87;21635;-79
2023/08/07 01:30:30;;;;;;;3.73;0.70;;;;;;;16.14;100.00;99238.34;1477943;88;21442;-81
2023/08/07 01:33:10;;;;;;;3.03;0.50;;;;;;;16.09;100.00;99236.85;1470701;87;21589;-80
2023/08/07 01:35:44;;;;;;;0.75;0.57;;;;;;;16.01;100.00;99245.91;1469187;87;21302;-79
2023/08/07 01:38:13;;;;;;;0.43;0.43;;;;;;;15.98;100.00;99253.81;1477846;87;21339;-80
2023/08/07 01:40:40;;;;;;;1.13;0.60;;;;;;;15.93;100.00;99248.28;1468170;88;21618;-80
2023/08/07 01:43:06;;;;;;;2.33;0.60;;;;;;;15.89;100.00;99253.75;1477319;87;21323;-81
2023/08/07 01:45:33;;;;;;;0.80;0.60;;;;;;;15.85;100.00;99255.19;1470073;88;22396;-80
2023/08/07 01:48:00;;;;;;;3.17;0.60;;;;;;;15.81;100.00;99259.84;1480205;88;21449;-79
2023/08/07 01:50:26;;;;;;;0.77;0.60;;;;;;;15.75;100.00;99263.64;1478403;87;22292;-79
2023/08/07 01:52:53;;;;;;;0.60;0.60;;;;;;;15.74;100.00;99275.88;1471092;87;21611;-79
2023/08/07 01:55:20;;;;;;;2.90;0.53;;;;;;;15.69;100.00;99270.34;1475101;87;21374;-78
2023/08/07 01:57:46;;;;;;;0.60;0.60;;;;;;;15.65;100.00;99277.06;1470999;88;21553;-79
2023/08/07 02:00:13;;;;;;;0.50;0.50;;;;;;;15.63;100.00;99282.63;1467490;88;21872;-79
2023/08/07 02:02:39;;;;;;;1.50;0.83;;;;;;;15.62;100.00;99280.96;1464258;87;21353;-79
2023/08/07 02:05:06;;;;;;;2.43;0.80;;;;;;;15.61;100.00;99290.00;1468895;88;21353;-78
2023/08/07 02:07:32;;;;;;;0.60;0.40;;;;;;;15.61;100.00;99283.34;1464341;88;21478;-78
2023/08/07 02:09:58;;;;;;;0.67;0.50;;;;;;;15.60;100.00;99284.37;1476215;87;21545;-78
2023/08/07 02:12:26;;;;;;;1.47;0.50;;;;;;;15.55;100.00;99285.50;1455220;88;21353;-78
2023/08/07 02:14:53;;;;;;;2.07;0.60;;;;;;;15.56;100.00;99279.13;1468377;87;22514;-78
2023/08/07 02:17:22;;;;;;;1.83;0.80;;;;;;;15.55;100.00;99284.17;1471006;88;21353;-78
2023/08/07 02:19:49;;;;;;;1.12;0.60;;;;;;;15.58;100.00;99287.75;1473084;87;21390;-78
2023/08/07 02:22:15;;;;;;;1.97;0.80;;;;;;;15.60;100.00;99280.38;1472223;87;21553;-78
2023/08/07 02:24:41;;;;;;;4.07;1.03;;;;;;;15.62;100.00;99283.63;1465468;87;21354;-78
2023/08/07 02:27:07;;;;;;;2.00;0.70;;;;;;;15.66;100.00;99284.06;1466917;87;21411;-78
2023/08/07 02:29:34;;;;;;;2.70;0.87;;;;;;;15.68;100.00;99284.19;1474585;88;21493;-78
2023/08/07 02:32:02;;;;;;;0.80;0.80;;;;;;;15.72;100.00;99285.92;1466121;88;21368;-78
2023/08/07 02:34:31;;;;;;;1.03;0.67;;;;;;;15.72;100.00;99286.73;1472950;87;22387;-78
2023/08/07 02:36:57;;;;;;;0.80;0.80;;;;;;;15.73;100.00;99288.36;1465658;88;21508;-78
2023/08/07 02:39:25;;;;;;;2.97;0.70;;;;;;;15.71;100.00;99287.77;1475197;87;21294;-78
2023/08/07 02:41:51;;;;;;;1.37;0.77;;;;;;;15.71;100.00;99292.29;1468610;88;22899;-80
2023/08/07 02:44:19;;;;;;;2.23;0.80;;;;;;;15.72;100.00;99289.92;1476336;87;21303;-80
2023/08/07 02:46:46;;;;;;;5.40;1.03;;;;;;;15.73;100.00;99288.36;1473774;87;21515;-79
2023/08/07 02:49:12;;;;;;;0.60;0.60;;;;;;;15.76;100.00;99298.61;1477585;88;21369;-80
2023/08/07 02:51:38;;;;;;;3.60;0.60;;;;;;;15.78;100.00;99299.75;1474236;87;22430;-79
2023/08/07 02:54:04;;;;;;;1.43;0.80;;;;;;;15.82;100.00;99306.30;1466517;88;21427;-79
2023/08/07 02:56:31;;;;;;;2.77;0.60;;;;;;;15.85;100.00;99295.72;1469296;87;21412;-80
2023/08/07 02:59:01;;;;;;;1.40;0.70;;;;;;;15.87;100.00;99303.83;1471959;88;21901;-79
2023/08/07 03:01:28;;;;;;;3.63;0.60;;;;;;;15.89;100.00;99304.97;1472927;88;21552;-80
2023/08/07 03:03:54;;;;;;;1.07;0.70;;;;;;;15.92;100.00;99311.22;1474006;87;21368;-78
2023/08/07 03:06:21;;;;;;;1.73;0.70;;;;;;;15.92;100.00;99311.22;1471498;87;21434;-80
2023/08/07 03:08:47;;;;;;;0.53;0.53;;;;;;;15.90;100.00;99309.27;1469694;87;21404;-80
2023/08/07 03:11:13;;;;;;;2.53;0.77;;;;;;;15.89;100.00;99316.97;1479740;88;21456;-79
2023/08/07 03:13:40;;;;;;;1.17;0.80;;;;;;;15.86;100.00;99316.06;1467447;88;21375;-80
2023/08/07 03:16:07;;;;;;;0.70;0.70;;;;;;;15.86;100.00;99320.06;1473004;87;21398;-79
2023/08/07 03:18:33;;;;;;;1.43;0.70;;;;;;;15.88;100.00;99323.31;1472230;88;22285;-79
2023/08/07 03:21:00;;;;;;;2.67;0.80;;;;;;;15.90;100.00;99318.08;1472227;88;21853;-79
2023/08/07 03:23:27;;;;;;;4.07;0.67;;;;;;;15.93;100.00;99319.52;1475298;88;21324;-79
2023/08/07 03:26:09;;;;;;;1.60;0.90;;;;;;;15.93;100.00;99322.19;1478327;87;21316;-79
2023/08/07 03:28:36;;;;;;;1.23;0.93;;;;;;;15.92;100.00;99324.04;1473169;87;21649;-79
2023/08/07 03:31:03;;;;;;;0.97;0.87;;;;;;;15.92;100.00;99325.89;1471055;87;21405;-78
2023/08/07 03:33:29;;;;;;;2.10;0.83;;;;;;;15.94;100.00;99329.15;1465116;87;21456;-77
2023/08/07 03:35:56;;;;;;;2.77;1.00;;;;;;;15.94;100.00;99323.81;1474815;88;21523;-80
2023/08/07 03:38:22;;;;;;;6.73;0.80;;;;;;;15.94;100.00;99323.81;1467963;88;22343;-79
2023/08/07 03:40:48;;;;;;;2.63;0.80;;;;;;;15.93;100.00;99329.67;1469335;87;21330;-79
2023/08/07 03:43:14;;;;;;;1.30;0.83;;;;;;;15.93;100.00;99324.85;1476268;87;21339;-79
2023/08/07 03:45:41;;;;;;;1.10;0.70;;;;;;;15.93;100.00;99324.85;1470592;88;21345;-79
2023/08/07 03:48:07;;;;;;;1.20;0.97;;;;;;;15.94;100.00;99331.33;1473233;87;21441;-80
2023/08/07 03:50:39;;;;;;;1.80;0.70;;;;;;;15.97;100.00;99328.77;1471593;87;21479;-79
2023/08/07 03:53:07;;;;;;;1.63;0.70;;;;;;;16.01;100.00;99332.63;1474022;87;21397;-79
2023/08/07 03:55:33;;;;;;;1.43;0.90;;;;;;;16.01;100.00;99338.78;1466131;88;21310;-80
2023/08/07 03:58:00;;;;;;;0.73;0.70;;;;;;;16.04;100.00;99342.08;1468933;88;21367;-81
2023/08/07 04:00:26;;;;;;;2.10;1.03;;;;;;;16.08;100.00;99344.09;1472637;87;21889;-79
2023/08/07 04:02:52;;;;;;;2.27;1.10;;;;;;;16.12;100.00;99342.66;1467572;87;21560;-79
2023/08/07 04:05:18;;;;;;;1.10;1.00;;;;;;;16.17;100.00;99354.88;1476065;88;21676;-79
2023/08/07 04:07:44;;;;;;;1.33;0.90;;;;;;;16.21;100.00;99357.42;1468046;88;22247;-78
2023/08/07 04:10:10;;;;;;;1.97;1.27;;;;;;;16.27;100.00;99361.09;1473640;88;21471;-79
2023/08/07 04:12:37;;;;;;;1.80;1.50;;;;;;;16.27;100.00;99354.94;1466512;87;21279;-79
2023/08/07 04:15:08;;;;;;;1.13;0.90;;;;;;;16.25;100.00;99349.80;1467867;88;21925;-79
2023/08/07 04:17:35;;;;;;;1.65;1.55;;;;;;;16.26;100.00;99355.46;1471105;88;22042;-78
2023/08/07 04:20:02;;;;;;;7.40;2.13;;;;;;;16.24;100.00;99346.31;1474626;87;21383;-78
2023/08/07 04:22:29;;;;;;;2.50;1.53;;;;;;;16.26;100.00;99347.97;1469876;87;21818;-79
2023/08/07 04:24:55;;;;;;;1.53;1.37;;;;;;;16.22;100.00;99348.89;1470930;87;21537;-79
2023/08/07 04:27:21;;;;;;;1.67;1.37;;;;;;;16.19;100.00;99347.97;1472098;88;21419;-79
2023/08/07 04:29:47;;;;;;;7.20;2.50;;;;;;;16.19;100.00;99352.80;1479768;87;21486;-79
2023/08/07 04:32:13;;;;;;;5.47;1.97;;;;;;;16.16;100.00;99361.22;1469612;87;21397;-79
2023/08/07 04:34:39;;;;;;;3.03;1.90;;;;;;;16.12;100.00;99365.88;1471958;88;21404;-79
2023/08/07 04:37:06;;;;;;;3.87;2.00;;;;;;;16.06;100.00;99363.52;1472152;87;22417;-79
2023/08/07 04:39:32;;;;;;;7.23;2.17;;;;;;;16.03;100.00;99365.28;1472549;88;21382;-79
2023/08/07 04:41:58;;;;;;;4.50;1.80;;;;;;;16.03;100.00;99363.95;1470346;87;21383;-78
2023/08/07 04:44:24;;;;;;;2.73;2.13;;;;;;;15.98;100.00;99362.41;1474252;87;21383;-79
2023/08/07 04:46:52;;;;;;;4.93;2.07;;;;;;;16.01;100.00;99365.99;1463721;87;21553;-77
2023/08/07 04:49:18;;;;;;;3.17;1.97;;;;;;;16.06;100.00;99366.72;1475793;87;22248;-78
2023/08/07 04:51:44;;;;;;;2.17;1.97;;;;;;;16.13;100.00;99365.65;1468542;88;21330;-80
2023/08/07 04:54:10;;;;;;;4.37;1.60;;;;;;;16.19;100.00;99370.66;1463757;87;21346;-80
2023/08/07 04:56:37;;;;;;;2.90;2.13;;;;;;;16.27;100.00;99376.30;1474078;87;22269;-79
2023/08/07 04:59:03;;;;;;;2.33;2.07;;;;;;;16.33;100.00;99375.45;1479061;88;21360;-79
2023/08/07 05:01:29;;;;;;;5.50;2.67;;;;;;;16.33;100.00;99378.13;1467302;88;21514;-79
2023/08/07 05:03:55;;;;;;;3.07;2.43;;;;;;;16.35;100.00;99379.56;1465960;88;22425;-80
2023/08/07 05:06:21;;;;;;;3.97;2.10;;;;;;;16.29;100.00;99386.27;1478713;87;21315;-80
2023/08/07 05:08:47;;;;;;;2.57;2.20;;;;;;;16.26;100.00;99382.68;1471779;88;21412;-80
2023/08/07 05:11:15;;;;;;;4.70;2.23;;;;;;;16.23;100.00;99378.06;1476693;87;22387;-79
2023/08/07 05:13:41;;;;;;;2.75;2.10;;;;;;;16.27;100.00;99377.63;1472557;88;21440;-80
2023/08/07 05:16:07;;;;;;;2.33;1.70;;;;;;;16.26;100.00;99383.49;1471986;88;21538;-80
2023/08/07 05:18:34;;;;;;;5.80;2.05;;;;;;;16.27;100.00;99380.30;1470157;88;21352;-80
2023/08/07 05:21:00;;;;;;;6.60;1.60;;;;;;;16.31;100.00;99388.19;1484166;87;21538;-80
2023/08/07 05:23:26;;;;;;;4.53;2.00;;;;;;;16.38;100.00;99376.98;1468705;87;21279;-79
2023/08/07 05:25:52;;;;;;;5.53;2.10;;;;;;;16.45;100.00;99384.44;1479990;87;21545;-80
2023/08/07 05:28:18;;;;;;;8.13;2.50;;;;;;;16.59;100.00;99382.02;1473709;88;21478;-80
2023/08/07 05:30:45;;;;;;;2.20;1.55;;;;;;;16.72;100.00;99380.34;1479032;87;22182;-79
2023/08/07 05:33:11;;;;;;;3.52;1.37;;;;;;;16.77;100.00;99377.34;1462161;87;21376;-77
2023/08/07 05:35:39;;;;;;;5.53;1.72;;;;;;;16.80;100.00;99385.45;1475715;88;21516;-79
2023/08/07 05:38:05;;;;;;;6.65;1.77;;;;;;;16.78;100.00;99376.84;1466658;88;21427;-79
2023/08/07 05:40:31;;;;;;;7.37;1.70;;;;;;;16.80;100.00;99390.80;1471498;87;21308;-78
2023/08/07 05:42:57;;;;;;;5.03;2.02;;;;;;;16.83;100.00;99385.02;1472472;87;21317;-78
2023/08/07 05:45:24;;;;;;;8.30;1.27;;;;;;;16.83;100.00;99391.70;1475635;87;21346;-79
2023/08/07 05:47:50;;;;;;;9.43;1.27;;;;;;;16.84;100.00;99393.36;1479905;88;21626;-79
2023/08/07 05:50:16;;;;;;;9.55;1.25;;;;;;;16.87;100.00;99396.94;1467043;88;21478;-77
2023/08/07 05:52:42;;;;;;;1.62;1.30;;;;;;;16.86;100.00;99399.29;1476512;88;21368;-80
2023/08/07 05:55:09;;;;;;;6.70;1.75;;;;;;;16.85;100.00;99394.98;1471307;87;22254;-89
2023/08/07 05:57:35;;;;;;;3.12;1.20;;;;;;;16.86;100.00;99395.28;1478881;87;21494;-87
2023/08/07 06:00:06;;;;;;;4.08;1.82;;;;;;;16.90;100.00;99397.33;1474109;87;21427;-87
2023/08/07 06:02:32;;;;;;;;;;;;;;;17.02;100.00;99393.98;1477325;87;22344;-86
2023/08/07 06:04:58;;;;;;;2.20;1.07;;;;;;;17.06;100.00;99402.70;1472827;87;20443;-88
2023/08/07 06:07:24;;;;;;;5.00;1.57;;;;;;;17.02;100.00;99402.81;1476203;87;21441;-88
2023/08/07 06:09:50;;;;;;;1.90;1.10;;;;;;;17.03;100.00;99400.95;1467135;88;21508;-86
2023/08/07 06:12:17;;;;;;;3.80;0.98;;;;;;;17.01;100.00;99402.52;1472429;88;21538;-87
2023/08/07 06:14:43;;;;;;;3.05;1.02;;;;;;;16.94;100.00;99405.73;1471433;87;21368;-85
2023/08/07 06:17:10;;;;;;;4.08;1.12;;;;;;;16.86;100.00;99412.16;1473409;87;21530;-86
2023/08/07 06:19:36;;;;;;;5.75;1.37;;;;;;;16.79;100.00;99417.22;1471243;87;21338;-86
2023/08/07 06:22:03;;;;;;;4.20;0.93;;;;;;;16.69;100.00;99425.15;1463189;88;21345;-86
2023/08/07 06:24:29;;;;;;;1.87;0.60;;;;;;;16.73;100.00;99418.05;1474403;87;22538;-88
2023/08/07 06:26:55;;;;;;;3.17;0.88;;;;;;;16.91;100.00;99424.34;1471393;87;21411;-87
2023/08/07 06:33:22;;;;;;;1.17;1.00;;;;;;;17.20;100.00;99426.66;1471134;88;22292;-86
2023/08/07 06:35:48;;;;;;;1.00;0.70;;;;;;;17.37;100.00;99427.78;1470467;87;22359;-86
2023/08/07 06:38:14;;;;;;;12.30;0.82;;;;;;;17.47;100.00;99424.66;1474773;87;21582;-88
2023/08/07 06:40:40;;;;;;;2.05;0.90;;;;;;;17.54;100.00;99426.22;1472981;87;21825;-86
2023/08/07 06:43:07;;;;;;;1.20;0.70;;;;;;;17.62;100.00;99428.34;1460123;88;21604;-87
2023/08/07 06:45:33;;;;;;;0.83;0.53;;;;;;;17.69;100.00;99430.44;1474888;87;22374;-87
2023/08/07 06:48:00;;;;;;;21.00;2.15;;;;;;;17.80;100.00;99427.08;1464890;88;21426;-84
2023/08/07 06:50:26;;;;;;;2.17;0.80;;;;;;;17.80;100.00;99440.46;1473067;87;21360;-85
2023/08/07 06:52:54;;;;;;;3.42;0.70;;;;;;;17.85;100.00;99438.48;1465853;88;21526;-86
2023/08/07 06:55:20;;;;;;;0.85;0.60;;;;;;;17.89;100.00;99439.67;1463543;88;22122;-86
2023/08/07 06:57:46;;;;;;;4.35;0.90;;;;;;;17.97;100.00;99437.53;1473678;87;21338;-88
2023/08/07 07:00:14;;;;;;;1.55;0.93;;;;;;;18.04;100.00;99437.49;1471383;88;21538;-86
2023/08/07 07:02:41;;;;;;;1.15;0.65;;;;;;;18.16;100.00;99434.91;1472760;87;21361;-87
2023/08/07 07:05:07;;;;;;;0.82;0.55;;;;;;;18.27;100.00;99435.52;1465743;88;21490;-86
2023/08/07 07:07:33;;;;;;;1.60;0.60;;;;;;;18.44;100.00;99432.55;1469602;87;21567;-83
2023/08/07 07:10:00;;;;;;;0.95;0.50;;;;;;;18.54;100.00;99441.92;1467378;88;21442;-86
2023/08/07 07:12:29;;;;;;;3.40;0.68;;;;;;;18.61;100.00;99436.77;1471724;87;21471;-85
2023/08/07 07:14:56;;;;;;;0.65;0.65;;;;;;;18.72;100.00;99433.34;1471572;87;21301;-84
2023/08/07 07:17:22;;;;;;;0.70;0.60;;;;;;;18.77;100.00;99435.38;1469751;87;21368;-86
2023/08/07 07:19:49;;;;;;;4.30;0.40;;;;;;;18.83;100.00;99433.14;1465178;88;22294;-86
2023/08/07 07:22:15;;;;;;;0.55;0.25;;;;;;;19.07;100.00;99443.96;1473036;87;21361;-85
2023/08/07 07:24:41;;;;;;;3.55;0.50;;;;;;;19.07;100.00;99443.96;1471692;88;21537;-86
2023/08/07 07:27:08;;;;;;;4.42;0.50;;;;;;;19.11;100.00;99451.87;1464367;88;22335;-85
2023/08/07 07:29:34;;;;;;;11.15;0.53;;;;;;;19.33;100.00;99441.43;1471892;87;21405;-84
2023/08/07 07:32:00;;;;;;;3.08;0.50;;;;;;;19.55;100.00;99448.44;1466342;88;21504;-84
2023/08/07 07:34:26;;;;;;;3.67;0.80;;;;;;;19.63;100.00;99457.51;1471262;87;21486;-85
2023/08/07 07:36:54;;;;;;;2.75;0.60;;;;;;;19.61;100.00;99459.59;1472024;87;21509;-86
2023/08/07 07:39:21;;;;;;;2.87;0.42;;;;;;;19.54;100.00;99465.08;1471516;87;21287;-86
2023/08/07 07:41:47;;;;;;;0.65;0.45;;;;;;;19.52;100.00;99467.69;1452587;88;21487;-88
2023/08/07 07:44:13;;;;;;;6.03;0.57;;;;;;;19.46;100.00;99467.27;1475415;87;21441;-86
2023/08/07 07:50:40;;;;;;;0.85;0.30;;;;;;;19.35;100.00;99480.41;1475270;88;21339;-88
2023/08/07 07:53:07;;;;;;;0.62;0.40;;;;;;;19.37;100.00;99472.95;1477532;87;21412;-87
2023/08/07 07:55:34;;;;;;;7.72;0.65;;;;;;;19.33;100.00;99477.15;1466044;88;21591;-85
2023/08/07 07:58:00;;;;;;;1.75;0.80;;;;;;;19.27;100.00;99471.33;1473732;87;22209;-87
2023/08/07 08:00:26;;;;;;;2.75;0.40;;;;;;;19.53;100.00;99484.89;1465049;88;22402;-86
2023/08/07 08:02:53;;;;;;;2.15;0.60;;;;;;;19.53;100.00;99484.89;1472605;87;21375;-84
2023/08/07 08:05:20;;;;;;;0.40;0.40;;;;;;;19.63;100.00;99485.69;1472456;87;21501;-87
2023/08/07 08:07:46;;;;;;;6.10;0.40;;;;;;;19.82;100.00;99487.29;1471603;87;22292;-86
2023/08/07 08:10:13;;;;;;;4.53;0.72;;;;;;;20.11;100.00;99484.75;1473980;87;21516;-84
2023/08/07 08:12:39;;;;;;;2.20;0.53;;;;;;;20.31;100.00;99487.59;1473512;87;21523;-86
2023/08/07 08:15:07;;;;;;;1.67;0.60;;;;;;;20.38;100.00;99488.31;1473712;87;21272;-85
2023/08/07 08:17:45;;;;;;;0.98;0.47;;;;;;;20.58;100.00;99487.98;1470659;88;22015;-86
2023/08/07 08:20:15;;;;;;;0.40;0.37;;;;;;;20.73;100.00;99489.11;1465899;88;21628;-86
2023/08/07 08:22:43;;;;;;;0.80;0.45;;;;;;;20.78;100.00;99497.81;1434611;90;21371;-86
2023/08/07 08:25:09;;;;;;;0.40;0.40;;;;;;;20.71;100.00;99496.61;1474895;88;21509;-86
2023/08/07 08:27:36;;;;;;;0.28;0.28;;;;;;;20.77;100.00;99511.48;1462537;88;22579;-85
2023/08/07 08:30:03;;;;;;;1.07;0.40;;;;;;;20.77;100.00;99513.64;1466884;88;22270;-85
2023/08/07 08:32:30;;;;;;;0.50;0.50;;;;;;;20.83;100.00;99506.50;1472222;87;21516;-86
2023/08/07 08:34:56;;;;;;;1.45;0.55;;;;;;;20.93;100.00;99508.06;1471972;87;21464;-86
2023/08/07 08:37:22;;;;;;;4.30;0.40;;;;;;;21.00;100.00;99506.58;1471754;87;21344;-85
2023/08/07 08:39:49;;;;;;;2.45;0.30;;;;;;;21.01;100.00;99505.02;1474394;87;21398;-86
2023/08/07 08:42:18;;;;;;;2.47;0.40;;;;;;;21.02;100.00;99509.32;1457481;88;22380;-87
2023/08/07 08:44:52;;;;;;;1.85;0.40;;;;;;;21.16;100.00;99506.65;1472205;87;21354;-88
2023/08/07 08:47:18;;;;;;;3.77;0.50;;;;;;;21.31;100.00;99505.31;1473681;87;21463;-88
2023/08/07 08:49:54;;;;;;;0.95;0.30;;;;;;;21.28;100.00;99504.45;1470747;87;21512;-84
2023/08/07 08:52:28;;;;;;;0.50;0.30;;;;;;;21.38;100.00;99510.06;1471342;87;21398;-87
2023/08/07 08:54:55;;;;;;;3.37;0.35;;;;;;;21.56;100.00;99503.66;1469238;87;21316;-86
2023/08/07 08:57:23;;;;;;;0.78;0.30;;;;;;;21.73;100.00;99518.50;1465721;88;21345;-86
2023/08/07 08:59:50;;;;;;;3.30;0.50;;;;;;;21.61;100.00;99512.64;1402611;87;21442;-86
2023/08/07 09:02:17;;;;;;;4.60;0.53;;;;;;;21.34;100.00;99516.41;1396191;87;21243;-86
2023/08/07 09:04:45;;;;;;;2.10;0.50;;;;;;;21.16;100.00;99514.72;1470093;88;21553;-86
2023/08/07 09:07:16;;;;;;;1.85;0.37;;;;;;;20.98;100.00;99512.21;1472982;88;21412;-84
2023/08/07 09:09:44;;;;;;;;;;;;;;;20.81;100.00;99509.44;1478309;88;21377;-85
2023/08/07 09:12:19;;;;;;;0.50;0.40;;;;;;;20.67;100.00;99518.28;1476124;87;20400;-86
2023/08/07 09:14:47;;;;;;;2.08;0.53;;;;;;;20.58;100.00;99522.92;1474769;87;21563;-85
2023/08/07 09:17:16;;;;;;;1.07;0.30;;;;;;;20.51;100.00;99520.30;1474207;88;21353;-85
2023/08/07 09:19:43;;;;;;;1.95;0.65;;;;;;;20.55;100.00;99516.14;1470565;87;21465;-87
2023/08/07 09:22:09;;;;;;;1.05;0.45;;;;;;;20.56;100.00;99519.64;1473663;87;21412;-88
2023/08/07 09:24:36;;;;;;;0.85;0.50;;;;;;;20.74;100.00;99518.15;1465215;88;21375;-87
2023/08/07 09:27:05;;;;;;;1.47;1.05;;;;;;;21.09;100.00;99519.44;1479974;88;21478;-86
2023/08/07 09:29:31;;;;;;;2.00;0.30;;;;;;;21.10;100.00;99517.56;1394926;87;22426;-85
2023/08/07 09:32:01;;;;;;;4.28;1.15;;;;;;;21.00;100.00;99516.80;1464335;87;21594;-86
2023/08/07 09:34:30;;;;;;;2.20;0.40;;;;;;;20.93;100.00;99525.55;1475882;87;21441;-86
2023/08/07 09:36:57;;;;;;;4.37;0.30;;;;;;;20.90;100.00;99521.99;1474522;87;21582;-87
2023/08/07 09:39:25;;;;;;;0.40;0.30;;;;;;;20.89;100.00;99522.52;1470815;87;21301;-86
2023/08/07 09:41:52;;;;;;;5.47;0.60;;;;;;;20.83;100.00;99528.02;1471330;88;21482;-87
2023/08/07 09:44:18;;;;;;;0.75;0.28;;;;;;;20.80;98.88;99529.83;1473378;87;21404;-85
2023/08/07 09:46:45;;;;;;;0.80;0.30;;;;;;;20.90;97.93;99530.06;1473977;88;21972;-87
2023/08/07 09:49:11;;;;;;;4.58;0.47;;;;;;;21.00;98.26;99536.17;1471126;87;21331;-86
2023/08/07 09:51:47;;;;;;;2.12;0.33;;;;;;;21.08;98.96;99537.14;1472574;87;22413;-87
2023/08/07 09:54:13;;;;;;;0.70;0.50;;;;;;;20.91;96.09;99543.78;1394551;87;22331;-85
2023/08/07 09:56:43;;;;;;;1.47;0.33;;;;;;;20.87;98.30;99540.77;1553528;87;21497;-84
2023/08/07 09:59:10;;;;;;;1.80;0.40;;;;;;;21.02;96.76;99542.95;1514474;88;22056;-85
2023/08/07 10:01:43;;;;;;;0.72;0.35;;;;;;;21.01;97.74;99541.33;1428197;88;21478;-85
2023/08/07 10:04:15;;;;;;;1.35;0.40;;;;;;;20.99;94.40;99552.02;1473320;88;22387;-84
2023/08/07 10:06:40;;;;;;;0.95;0.40;;;;;;;20.95;95.44;99542.28;1478046;88;21478;-82
2023/08/07 10:09:07;;;;;;;2.05;0.50;;;;;;;21.01;95.56;99552.62;1470448;88;21619;-82
2023/08/07 10:11:33;;;;;;;5.28;0.55;;;;;;;21.21;95.20;99555.72;1465741;88;21665;-84
2023/08/07 10:14:00;;;;;;;0.47;0.30;;;;;;;21.21;95.48;99545.49;1470741;87;21612;-84
2023/08/07 10:16:28;;;;;;;5.78;0.40;;;;;;;21.42;94.60;99558.84;1474930;87;22449;-84
2023/08/07 10:18:55;;;;;;;1.10;0.23;;;;;;;21.69;92.90;99556.38;1472392;87;21404;-82
2023/08/07 10:21:23;;;;;;;3.20;0.60;;;;;;;21.58;89.65;99554.86;1471029;87;21398;-83
2023/08/07 10:23:54;;;;;;;2.25;0.30;;;;;;;21.40;88.85;99553.69;1471549;87;22403;-84
2023/08/07 10:26:22;;;;;;;2.08;0.37;;;;;;;21.42;89.49;99552.92;1473445;87;21361;-84
2023/08/07 10:28:54;;;;;;;4.90;0.42;;;;;;;21.34;90.92;99566.72;1464656;88;22182;-84
2023/08/07 10:31:22;;;;;;;1.80;0.40;;;;;;;21.18;90.72;99562.39;1474511;87;21301;-83
2023/08/07 10:33:48;;;;;;;7.00;0.40;;;;;;;21.03;90.22;99563.44;1474824;87;22395;-82
2023/08/07 10:36:17;;;;;;;0.30;0.30;;;;;;;21.05;91.38;99568.56;1476374;87;22455;-82
2023/08/07 10:38:43;;;;;;;0.35;0.28;;;;;;;21.03;88.31;99566.63;1467650;88;21434;-82
2023/08/07 10:41:13;;;;;;;3.20;0.50;;;;;;;21.02;90.51;99568.50;1471905;87;21404;-83
2023/08/07 10:43:44;;;;;;;6.20;0.50;;;;;;;21.19;92.06;99570.74;1471523;87;21287;-82
2023/08/07 10:46:22;;;;;;;2.27;0.25;;;;;;;21.44;91.50;99568.31;1472954;87;21435;-81
2023/08/07 10:48:59;;;;;;;0.65;0.30;;;;;;;21.43;89.14;99569.88;1478085;88;21519;-80
2023/08/07 10:51:32;;;;;;;2.72;0.50;;;;;;;21.35;89.48;99571.88;1468905;87;21434;-81
2023/08/07 10:54:01;;;;;;;2.62;0.47;;;;;;;21.40;89.90;99585.98;1463294;88;21435;-81
2023/08/07 10:56:35;;;;;;;0.78;0.30;;;;;;;21.53;87.53;99572.25;1457587;88;21515;-80
2023/08/07 10:59:12;;;;;;;1.17;0.40;;;;;;;21.50;87.46;99564.66;1479008;87;21353;-83
2023/08/07 11:01:43;;;;;;;2.70;0.30;;;;;;;21.56;87.18;99565.05;1474548;88;21817;-82
2023/08/07 11:04:15;;;;;;;1.43;0.33;;;;;;;21.82;88.20;99574.94;1483952;87;21383;-82
2023/08/07 11:06:43;;;;;;;4.42;0.50;;;;;;;22.01;86.88;99572.83;1477974;87;21332;-81
2023/08/07 11:09:10;;;;;;;3.15;0.60;;;;;;;22.16;88.68;99574.98;1477672;88;21553;-82
2023/08/07 11:11:43;;;;;;;4.53;0.40;;;;;;;22.09;88.38;99574.59;1474475;87;21353;-81
2023/08/07 11:14:16;;;;;;;1.92;0.70;;;;;;;22.07;88.16;99567.30;1467133;88;21486;-81
2023/08/07 11:16:43;;;;;;;5.05;0.40;;;;;;;21.98;87.24;99578.20;1474573;88;21360;-81
2023/08/07 11:19:11;;;;;;;7.03;0.50;;;;;;;21.74;86.30;99586.09;1473723;88;21360;-81
2023/08/07 11:21:38;;;;;;;0.90;0.60;;;;;;;21.46;87.11;99576.95;1471930;88;22204;-81
2023/08/07 11:24:04;;;;;;;4.58;1.10;;;;;;;21.27;87.86;99575.48;1472744;87;21375;-81
2023/08/07 11:26:31;;;;;;;5.95;0.55;;;;;;;21.24;88.64;99581.34;1471664;87;21405;-83
2023/08/07 11:28:58;;;;;;;0.80;0.53;;;;;;;21.33;89.46;99582.06;1475364;87;21509;-81
2023/08/07 11:31:25;;;;;;;4.05;0.50;;;;;;;21.48;88.65;99577.53;1469734;88;21471;-82
2023/08/07 11:33:53;;;;;;;1.52;0.50;;;;;;;21.40;87.58;99573.87;1477092;87;21330;-81
2023/08/07 11:36:20;;;;;;;5.05;0.78;;;;;;;21.55;87.86;99584.11;1474418;87;22522;-81